sensor_id;sensor_type;location;lat;lon;timestamp;pressure;altitude;pressure_sealevel;temperature;humidity
50011;BME280;35899;50.352;19.390;2023-06-24T00:00:36;97914.77;;;20.57;76.21
50011;BME280;35899;50.352;19.390;2023-06-24T00:03:22;97919.64;;;20.55;76.13
50011;BME280;35899;50.352;19.390;2023-06-24T00:05:49;97916.52;;;20.54;75.99
50011;BME280;35899;50.352;19.390;2023-06-24T00:08:15;97909.97;;;20.51;75.89
50011;BME280;35899;50.352;19.390;2023-06-24T00:10:43;97903.50;;;20.46;75.85
50011;BME280;35899;50.352;19.390;2023-06-24T00:13:09;97897.44;;;20.42;75.90
50011;BME280;35899;50.352;19.390;2023-06-24T00:15:35;97896.14;;;20.39;75.82
50011;BME280;35899;50.352;19.390;2023-06-24T00:18:02;97895.11;;;20.36;75.88
50011;BME280;35899;50.352;19.390;2023-06-24T00:20:31;97892.25;;;20.31;75.87
50011;BME280;35899;50.352;19.390;2023-06-24T00:22:58;97887.16;;;20.28;75.92
50011;BME280;35899;50.352;19.390;2023-06-24T00:25:24;97889.08;;;20.28;76.21
50011;BME280;35899;50.352;19.390;2023-06-24T00:27:50;97887.73;;;20.28;76.29
50011;BME280;35899;50.352;19.390;2023-06-24T00:30:17;97886.50;;;20.26;76.20
50011;BME280;35899;50.352;19.390;2023-06-24T00:32:43;97885.64;;;20.26;76.14
50011;BME280;35899;50.352;19.390;2023-06-24T00:35:09;97880.83;;;20.24;76.20
50011;BME280;35899;50.352;19.390;2023-06-24T00:37:36;97879.70;;;20.23;76.24
50011;BME280;35899;50.352;19.390;2023-06-24T00:40:02;97882.28;;;20.20;76.24
50011;BME280;35899;50.352;19.390;2023-06-24T00:42:30;97883.80;;;20.17;76.29
50011;BME280;35899;50.352;19.390;2023-06-24T00:44:56;97880.44;;;20.13;76.38
50011;BME280;35899;50.352;19.390;2023-06-24T00:47:23;97877.34;;;20.11;76.52
50011;BME280;35899;50.352;19.390;2023-06-24T00:49:49;97878.73;;;20.07;76.47
50011;BME280;35899;50.352;19.390;2023-06-24T00:52:16;97875.05;;;20.04;76.57
50011;BME280;35899;50.352;19.390;2023-06-24T00:54:43;97876.34;;;20.02;76.70
50011;BME280;35899;50.352;19.390;2023-06-24T00:57:09;97873.77;;;20.00;76.78
50011;BME280;35899;50.352;19.390;2023-06-24T00:59:36;97871.23;;;19.96;76.77
50011;BME280;35899;50.352;19.390;2023-06-24T01:02:03;97870.45;;;19.94;76.98
50011;BME280;35899;50.352;19.390;2023-06-24T01:04:33;97870.10;;;19.93;77.19
50011;BME280;35899;50.352;19.390;2023-06-24T01:07:00;97869.85;;;19.94;77.23
50011;BME280;35899;50.352;19.390;2023-06-24T01:09:27;97868.08;;;19.93;77.26
50011;BME280;35899;50.352;19.390;2023-06-24T01:11:54;97877.04;;;19.91;77.24
50011;BME280;35899;50.352;19.390;2023-06-24T01:14:20;97885.60;;;19.91;77.44
50011;BME280;35899;50.352;19.390;2023-06-24T01:22:04;97893.36;;;19.89;77.40
50011;BME280;35899;50.352;19.390;2023-06-24T01:24:43;97900.84;;;19.88;77.55
50011;BME280;35899;50.352;19.390;2023-06-24T01:35:33;97911.41;;;19.80;77.82
50011;BME280;35899;50.352;19.390;2023-06-24T01:38:09;97910.56;;;19.78;78.01
50011;BME280;35899;50.352;19.390;2023-06-24T01:40:40;97914.73;;;19.77;78.00
50011;BME280;35899;50.352;19.390;2023-06-24T01:43:08;97920.24;;;19.75;78.15
50011;BME280;35899;50.352;19.390;2023-06-24T01:45:37;97920.17;;;19.73;78.32
50011;BME280;35899;50.352;19.390;2023-06-24T01:50:33;97923.27;;;19.71;78.50
50011;BME280;35899;50.352;19.390;2023-06-24T01:53:01;97922.86;;;19.71;78.65
50011;BME280;35899;50.352;19.390;2023-06-24T01:55:28;97924.66;;;19.71;78.74
50011;BME280;35899;50.352;19.390;2023-06-24T01:57:55;97921.93;;;19.70;78.85
50011;BME280;35899;50.352;19.390;2023-06-24T02:00:23;97920.59;;;19.68;79.09
50011;BME280;35899;50.352;19.390;2023-06-24T02:02:50;97917.20;;;19.67;79.10
50011;BME280;35899;50.352;19.390;2023-06-24T02:05:17;97916.08;;;19.64;79.14
50011;BME280;35899;50.352;19.390;2023-06-24T02:07:46;97919.89;;;19.63;79.25
50011;BME280;35899;50.352;19.390;2023-06-24T02:10:13;97915.73;;;19.62;79.38
50011;BME280;35899;50.352;19.390;2023-06-24T02:12:40;97912.22;;;19.62;79.50
50011;BME280;35899;50.352;19.390;2023-06-24T02:15:07;97911.20;;;19.62;79.54
50011;BME280;35899;50.352;19.390;2023-06-24T02:17:35;97909.23;;;19.61;79.55
50011;BME280;35899;50.352;19.390;2023-06-24T02:20:03;97907.36;;;19.59;79.49
50011;BME280;35899;50.352;19.390;2023-06-24T02:22:31;97907.02;;;19.57;79.61
50011;BME280;35899;50.352;19.390;2023-06-24T02:24:57;97911.38;;;19.54;79.54
50011;BME280;35899;50.352;19.390;2023-06-24T02:27:24;97913.13;;;19.52;79.74
50011;BME280;35899;50.352;19.390;2023-06-24T02:29:51;97920.05;;;19.53;79.78
50011;BME280;35899;50.352;19.390;2023-06-24T02:32:17;97923.94;;;19.53;79.80
50011;BME280;35899;50.352;19.390;2023-06-24T02:34:44;97924.77;;;19.53;79.87
50011;BME280;35899;50.352;19.390;2023-06-24T02:37:11;97923.41;;;19.54;79.93
50011;BME280;35899;50.352;19.390;2023-06-24T02:39:37;97925.30;;;19.55;79.89
50011;BME280;35899;50.352;19.390;2023-06-24T02:42:04;97925.79;;;19.56;79.86
50011;BME280;35899;50.352;19.390;2023-06-24T02:44:30;97920.05;;;19.53;79.80
50011;BME280;35899;50.352;19.390;2023-06-24T02:46:57;97921.34;;;19.52;79.98
50011;BME280;35899;50.352;19.390;2023-06-24T02:49:23;97919.11;;;19.52;80.06
50011;BME280;35899;50.352;19.390;2023-06-24T02:51:51;97919.38;;;19.51;80.04
50011;BME280;35899;50.352;19.390;2023-06-24T02:54:17;97918.86;;;19.51;80.13
50011;BME280;35899;50.352;19.390;2023-06-24T02:57:13;97916.57;;;19.49;80.20
50011;BME280;35899;50.352;19.390;2023-06-24T03:00:05;97915.81;;;19.47;80.27
50011;BME280;35899;50.352;19.390;2023-06-24T03:02:43;97917.15;;;19.47;80.36
50011;BME280;35899;50.352;19.390;2023-06-24T03:05:10;97912.39;;;19.47;80.52
50011;BME280;35899;50.352;19.390;2023-06-24T03:07:37;97911.31;;;19.48;80.50
50011;BME280;35899;50.352;19.390;2023-06-24T03:10:04;97910.35;;;19.49;80.76
50011;BME280;35899;50.352;19.390;2023-06-24T03:12:31;97915.45;;;19.48;80.75
50011;BME280;35899;50.352;19.390;2023-06-24T03:14:58;97919.53;;;19.46;80.83
50011;BME280;35899;50.352;19.390;2023-06-24T03:17:26;97925.04;;;19.44;80.98
50011;BME280;35899;50.352;19.390;2023-06-24T03:19:52;97924.70;;;19.44;81.08
50011;BME280;35899;50.352;19.390;2023-06-24T03:22:21;97926.70;;;19.43;81.26
50011;BME280;35899;50.352;19.390;2023-06-24T03:24:48;97929.82;;;19.42;81.37
50011;BME280;35899;50.352;19.390;2023-06-24T03:27:14;97929.46;;;19.41;81.64
50011;BME280;35899;50.352;19.390;2023-06-24T03:29:42;97930.45;;;19.36;82.03
50011;BME280;35899;50.352;19.390;2023-06-24T03:32:11;97931.86;;;19.31;82.43
50011;BME280;35899;50.352;19.390;2023-06-24T03:34:38;97937.34;;;19.28;82.85
50011;BME280;35899;50.352;19.390;2023-06-24T03:37:04;97936.66;;;19.24;83.36
50011;BME280;35899;50.352;19.390;2023-06-24T03:39:31;97941.19;;;19.21;83.81
50011;BME280;35899;50.352;19.390;2023-06-24T03:41:57;97943.67;;;19.17;84.32
50011;BME280;35899;50.352;19.390;2023-06-24T03:44:23;97938.75;;;19.12;85.06
50011;BME280;35899;50.352;19.390;2023-06-24T03:46:51;97941.36;;;19.07;85.88
50011;BME280;35899;50.352;19.390;2023-06-24T03:49:17;97944.09;;;19.05;86.71
50011;BME280;35899;50.352;19.390;2023-06-24T03:51:44;97947.00;;;19.04;87.41
50011;BME280;35899;50.352;19.390;2023-06-24T03:54:10;97953.74;;;19.03;87.71
50011;BME280;35899;50.352;19.390;2023-06-24T03:56:36;97956.71;;;19.05;88.13
50011;BME280;35899;50.352;19.390;2023-06-24T03:59:04;97960.83;;;19.09;88.59
50011;BME280;35899;50.352;19.390;2023-06-24T04:01:32;97959.04;;;19.13;88.83
50011;BME280;35899;50.352;19.390;2023-06-24T04:03:59;97963.02;;;19.12;89.33
50011;BME280;35899;50.352;19.390;2023-06-24T04:06:25;97961.16;;;19.08;89.54
50011;BME280;35899;50.352;19.390;2023-06-24T04:08:52;97965.36;;;19.04;90.18
50011;BME280;35899;50.352;19.390;2023-06-24T04:11:19;97965.94;;;19.01;90.77
50011;BME280;35899;50.352;19.390;2023-06-24T04:13:45;97970.91;;;18.97;91.12
50011;BME280;35899;50.352;19.390;2023-06-24T04:16:11;97969.50;;;18.95;91.46
50011;BME280;35899;50.352;19.390;2023-06-24T04:18:38;97969.66;;;18.93;91.82
50011;BME280;35899;50.352;19.390;2023-06-24T04:21:04;97972.38;;;18.91;92.34
50011;BME280;35899;50.352;19.390;2023-06-24T04:23:31;97981.55;;;18.87;92.76
50011;BME280;35899;50.352;19.390;2023-06-24T04:25:57;97984.09;;;18.83;92.79
50011;BME280;35899;50.352;19.390;2023-06-24T04:28:23;97982.59;;;18.80;93.16
50011;BME280;35899;50.352;19.390;2023-06-24T04:30:50;97981.75;;;18.82;93.45
50011;BME280;35899;50.352;19.390;2023-06-24T04:33:17;97990.02;;;18.85;93.77
50011;BME280;35899;50.352;19.390;2023-06-24T04:35:44;97989.52;;;18.83;93.94
50011;BME280;35899;50.352;19.390;2023-06-24T04:38:10;97985.00;;;18.83;93.85
50011;BME280;35899;50.352;19.390;2023-06-24T04:40:37;97985.64;;;18.83;94.00
50011;BME280;35899;50.352;19.390;2023-06-24T04:43:03;97985.91;;;18.86;94.09
50011;BME280;35899;50.352;19.390;2023-06-24T04:45:29;97987.34;;;18.89;94.51
50011;BME280;35899;50.352;19.390;2023-06-24T04:47:56;97988.65;;;18.86;94.40
50011;BME280;35899;50.352;19.390;2023-06-24T04:50:22;97994.13;;;18.84;94.49
50011;BME280;35899;50.352;19.390;2023-06-24T04:52:52;97998.52;;;18.84;94.49
50011;BME280;35899;50.352;19.390;2023-06-24T04:55:18;98004.34;;;18.84;94.79
50011;BME280;35899;50.352;19.390;2023-06-24T04:57:45;98006.61;;;18.80;95.11
50011;BME280;35899;50.352;19.390;2023-06-24T05:00:11;98007.02;;;18.78;94.96
50011;BME280;35899;50.352;19.390;2023-06-24T05:02:38;98009.52;;;18.81;94.95
50011;BME280;35899;50.352;19.390;2023-06-24T05:05:04;98007.30;;;18.84;95.23
50011;BME280;35899;50.352;19.390;2023-06-24T05:07:31;98006.88;;;18.84;95.12
50011;BME280;35899;50.352;19.390;2023-06-24T05:09:57;98004.92;;;18.88;95.03
50011;BME280;35899;50.352;19.390;2023-06-24T05:12:24;98005.09;;;18.91;95.02
50011;BME280;35899;50.352;19.390;2023-06-24T05:14:52;98009.30;;;18.90;94.78
50011;BME280;35899;50.352;19.390;2023-06-24T05:17:19;98013.77;;;18.91;94.89
50011;BME280;35899;50.352;19.390;2023-06-24T05:19:45;98019.40;;;18.92;94.85
50011;BME280;35899;50.352;19.390;2023-06-24T05:22:11;98023.53;;;18.95;94.80
50011;BME280;35899;50.352;19.390;2023-06-24T05:24:38;98020.67;;;18.99;94.59
50011;BME280;35899;50.352;19.390;2023-06-24T05:27:05;98027.80;;;19.04;94.44
50011;BME280;35899;50.352;19.390;2023-06-24T05:29:32;98030.88;;;19.14;94.49
50011;BME280;35899;50.352;19.390;2023-06-24T05:31:58;98036.94;;;19.23;94.24
50011;BME280;35899;50.352;19.390;2023-06-24T05:34:25;98037.58;;;19.30;93.97
50011;BME280;35899;50.352;19.390;2023-06-24T05:36:51;98037.48;;;19.36;93.56
50011;BME280;35899;50.352;19.390;2023-06-24T05:39:18;98040.45;;;19.46;93.40
50011;BME280;35899;50.352;19.390;2023-06-24T05:41:44;98041.42;;;19.56;92.75
50011;BME280;35899;50.352;19.390;2023-06-24T05:44:11;98040.67;;;19.60;92.16
50011;BME280;35899;50.352;19.390;2023-06-24T05:46:37;98039.67;;;19.57;91.95
50011;BME280;35899;50.352;19.390;2023-06-24T05:49:03;98043.03;;;19.52;91.95
50011;BME280;35899;50.352;19.390;2023-06-24T05:51:30;98044.48;;;19.46;91.88
50011;BME280;35899;50.352;19.390;2023-06-24T05:53:56;98045.92;;;19.39;91.79
50011;BME280;35899;50.352;19.390;2023-06-24T05:56:23;98048.66;;;19.30;91.86
50011;BME280;35899;50.352;19.390;2023-06-24T05:58:49;98049.20;;;19.21;91.50
50011;BME280;35899;50.352;19.390;2023-06-24T06:01:16;98048.59;;;19.14;91.29
50011;BME280;35899;50.352;19.390;2023-06-24T06:03:45;98045.98;;;19.13;91.43
50011;BME280;35899;50.352;19.390;2023-06-24T06:06:11;98048.15;;;19.20;91.36
50011;BME280;35899;50.352;19.390;2023-06-24T06:08:38;98052.42;;;19.23;91.02
50011;BME280;35899;50.352;19.390;2023-06-24T06:11:04;98053.62;;;19.21;90.60
50011;BME280;35899;50.352;19.390;2023-06-24T06:13:31;98058.50;;;19.28;90.30
50011;BME280;35899;50.352;19.390;2023-06-24T06:15:57;98062.31;;;19.32;89.78
50011;BME280;35899;50.352;19.390;2023-06-24T06:18:23;98061.15;;;19.45;89.47
50011;BME280;35899;50.352;19.390;2023-06-24T06:20:50;98059.16;;;19.60;89.10
50011;BME280;35899;50.352;19.390;2023-06-24T06:23:16;98062.84;;;19.76;88.40
50011;BME280;35899;50.352;19.390;2023-06-24T06:25:43;98062.98;;;19.86;87.65
50011;BME280;35899;50.352;19.390;2023-06-24T06:28:09;98067.67;;;19.91;86.53
50011;BME280;35899;50.352;19.390;2023-06-24T06:30:35;98070.53;;;19.95;85.66
50011;BME280;35899;50.352;19.390;2023-06-24T06:33:02;98072.27;;;19.89;84.72
50011;BME280;35899;50.352;19.390;2023-06-24T06:35:28;98080.52;;;19.93;84.89
50011;BME280;35899;50.352;19.390;2023-06-24T06:37:57;98086.27;;;19.95;84.50
50011;BME280;35899;50.352;19.390;2023-06-24T06:40:23;98091.61;;;19.91;84.43
50011;BME280;35899;50.352;19.390;2023-06-24T06:42:49;98094.21;;;19.80;83.97
50011;BME280;35899;50.352;19.390;2023-06-24T06:45:16;98097.80;;;19.64;83.88
50011;BME280;35899;50.352;19.390;2023-06-24T06:47:42;98100.44;;;19.47;83.74
50011;BME280;35899;50.352;19.390;2023-06-24T06:50:09;98102.95;;;19.36;84.03
50011;BME280;35899;50.352;19.390;2023-06-24T06:52:35;98102.23;;;19.31;84.11
50011;BME280;35899;50.352;19.390;2023-06-24T06:55:01;98104.29;;;19.30;84.38
50011;BME280;35899;50.352;19.390;2023-06-24T06:57:29;98105.73;;;19.31;84.32
50011;BME280;35899;50.352;19.390;2023-06-24T06:59:56;98108.95;;;19.36;84.80
50011;BME280;35899;50.352;19.390;2023-06-24T07:02:22;98113.66;;;19.38;84.73
50011;BME280;35899;50.352;19.390;2023-06-24T07:04:48;98121.60;;;19.34;84.64
50011;BME280;35899;50.352;19.390;2023-06-24T07:07:15;98117.56;;;19.25;84.29
50011;BME280;35899;50.352;19.390;2023-06-24T07:09:41;98118.88;;;19.20;84.18
50011;BME280;35899;50.352;19.390;2023-06-24T07:12:08;98121.09;;;19.11;84.08
50011;BME280;35899;50.352;19.390;2023-06-24T07:14:34;98120.96;;;19.07;84.20
50011;BME280;35899;50.352;19.390;2023-06-24T07:17:01;98118.44;;;19.08;84.34
50011;BME280;35899;50.352;19.390;2023-06-24T07:19:27;98120.90;;;19.13;84.58
50011;BME280;35899;50.352;19.390;2023-06-24T07:21:53;98122.56;;;19.23;84.58
50011;BME280;35899;50.352;19.390;2023-06-24T07:24:20;98118.33;;;19.30;84.43
50011;BME280;35899;50.352;19.390;2023-06-24T07:26:46;98118.18;;;19.31;84.05
50011;BME280;35899;50.352;19.390;2023-06-24T07:29:12;98118.39;;;19.38;84.09
50011;BME280;35899;50.352;19.390;2023-06-24T07:31:40;98120.90;;;19.46;83.92
50011;BME280;35899;50.352;19.390;2023-06-24T07:34:07;98123.13;;;19.56;83.69
50011;BME280;35899;50.352;19.390;2023-06-24T07:36:33;98129.11;;;19.61;82.99
50011;BME280;35899;50.352;19.390;2023-06-24T07:39:00;98131.49;;;19.65;82.46
50011;BME280;35899;50.352;19.390;2023-06-24T07:41:26;98129.93;;;19.63;82.34
50011;BME280;35899;50.352;19.390;2023-06-24T07:43:52;98129.16;;;19.67;82.07
50011;BME280;35899;50.352;19.390;2023-06-24T07:46:19;98130.38;;;19.81;82.23
50011;BME280;35899;50.352;19.390;2023-06-24T07:48:46;98134.50;;;19.97;81.57
50011;BME280;35899;50.352;19.390;2023-06-24T07:51:12;98136.34;;;20.10;80.83
50011;BME280;35899;50.352;19.390;2023-06-24T07:53:39;98142.17;;;20.16;80.14
50011;BME280;35899;50.352;19.390;2023-06-24T07:56:05;98148.08;;;20.25;80.18
50011;BME280;35899;50.352;19.390;2023-06-24T07:58:31;98154.19;;;20.42;80.24
50011;BME280;35899;50.352;19.390;2023-06-24T08:00:58;98159.16;;;20.54;79.62
50011;BME280;35899;50.352;19.390;2023-06-24T08:03:24;98162.26;;;20.57;78.23
50011;BME280;35899;50.352;19.390;2023-06-24T08:05:51;98161.67;;;20.54;78.00
50011;BME280;35899;50.352;19.390;2023-06-24T08:08:17;98165.23;;;20.57;77.57
50011;BME280;35899;50.352;19.390;2023-06-24T08:10:43;98165.69;;;20.56;77.09
50011;BME280;35899;50.352;19.390;2023-06-24T08:13:10;98171.15;;;20.52;76.99
50011;BME280;35899;50.352;19.390;2023-06-24T08:15:36;98175.64;;;20.47;77.15
50011;BME280;35899;50.352;19.390;2023-06-24T08:18:06;98183.38;;;20.48;77.46
50011;BME280;35899;50.352;19.390;2023-06-24T08:20:32;98188.16;;;20.45;76.86
50011;BME280;35899;50.352;19.390;2023-06-24T08:22:58;98191.65;;;20.35;76.54
50011;BME280;35899;50.352;19.390;2023-06-24T08:25:25;98195.87;;;20.31;76.87
50011;BME280;35899;50.352;19.390;2023-06-24T08:27:51;98201.64;;;20.34;77.42
50011;BME280;35899;50.352;19.390;2023-06-24T08:30:18;98205.39;;;20.33;77.10
50011;BME280;35899;50.352;19.390;2023-06-24T08:32:44;98212.46;;;20.26;76.92
50011;BME280;35899;50.352;19.390;2023-06-24T08:35:11;98217.13;;;20.22;77.33
50011;BME280;35899;50.352;19.390;2023-06-24T08:37:37;98214.11;;;20.25;77.66
50011;BME280;35899;50.352;19.390;2023-06-24T08:40:03;98212.73;;;20.32;77.60
50011;BME280;35899;50.352;19.390;2023-06-24T08:42:30;98214.45;;;20.37;77.56
50011;BME280;35899;50.352;19.390;2023-06-24T08:44:57;98213.17;;;20.36;76.94
50011;BME280;35899;50.352;19.390;2023-06-24T08:47:23;98214.98;;;20.32;77.24
50011;BME280;35899;50.352;19.390;2023-06-24T08:49:55;98210.83;;;20.38;77.51
50011;BME280;35899;50.352;19.390;2023-06-24T08:52:25;98211.27;;;20.47;77.40
50011;BME280;35899;50.352;19.390;2023-06-24T08:54:52;98212.39;;;20.53;76.91
50011;BME280;35899;50.352;19.390;2023-06-24T08:57:21;98218.36;;;20.53;76.73
50011;BME280;35899;50.352;19.390;2023-06-24T08:59:48;98217.89;;;20.53;76.55
50011;BME280;35899;50.352;19.390;2023-06-24T09:02:14;98217.98;;;20.54;76.86
50011;BME280;35899;50.352;19.390;2023-06-24T09:04:41;98219.36;;;20.59;77.10
50011;BME280;35899;50.352;19.390;2023-06-24T09:07:07;98223.16;;;20.61;76.62
50011;BME280;35899;50.352;19.390;2023-06-24T09:09:41;98222.71;;;20.55;76.36
50011;BME280;35899;50.352;19.390;2023-06-24T09:12:11;98226.48;;;20.46;76.18
50011;BME280;35899;50.352;19.390;2023-06-24T09:14:41;98231.89;;;20.39;76.46
50011;BME280;35899;50.352;19.390;2023-06-24T09:17:08;98232.05;;;20.35;76.66
50011;BME280;35899;50.352;19.390;2023-06-24T09:19:34;98228.62;;;20.36;76.62
50011;BME280;35899;50.352;19.390;2023-06-24T09:22:01;98228.70;;;20.44;76.80
50011;BME280;35899;50.352;19.390;2023-06-24T09:24:34;98231.97;;;20.52;76.94
50011;BME280;35899;50.352;19.390;2023-06-24T09:27:01;98234.41;;;20.66;77.02
50011;BME280;35899;50.352;19.390;2023-06-24T09:29:28;98233.95;;;20.80;77.29
50011;BME280;35899;50.352;19.390;2023-06-24T09:31:56;98234.50;;;20.96;77.12
50011;BME280;35899;50.352;19.390;2023-06-24T09:34:23;98230.93;;;21.03;76.26
50011;BME280;35899;50.352;19.390;2023-06-24T09:36:53;98231.32;;;21.11;76.04
50011;BME280;35899;50.352;19.390;2023-06-24T09:39:20;98235.98;;;21.25;75.92
50011;BME280;35899;50.352;19.390;2023-06-24T09:41:56;98235.27;;;21.35;74.82
50011;BME280;35899;50.352;19.390;2023-06-24T09:44:23;98236.81;;;21.43;74.69
50011;BME280;35899;50.352;19.390;2023-06-24T09:46:49;98229.80;;;21.43;73.40
50011;BME280;35899;50.352;19.390;2023-06-24T09:49:16;98231.13;;;21.42;73.48
50011;BME280;35899;50.352;19.390;2023-06-24T09:51:43;98235.45;;;21.53;73.31
50011;BME280;35899;50.352;19.390;2023-06-24T09:54:11;98238.38;;;21.58;72.52
50011;BME280;35899;50.352;19.390;2023-06-24T09:56:39;98239.64;;;21.64;72.76
50011;BME280;35899;50.352;19.390;2023-06-24T09:59:06;98245.66;;;21.75;72.57
50011;BME280;35899;50.352;19.390;2023-06-24T10:01:34;98243.52;;;21.77;72.12
50011;BME280;35899;50.352;19.390;2023-06-24T10:04:02;98242.36;;;21.84;72.40
50011;BME280;35899;50.352;19.390;2023-06-24T10:06:29;98247.44;;;21.89;72.32
50011;BME280;35899;50.352;19.390;2023-06-24T10:08:56;98249.24;;;21.96;72.45
50011;BME280;35899;50.352;19.390;2023-06-24T10:11:22;98250.91;;;22.07;72.37
50011;BME280;35899;50.352;19.390;2023-06-24T10:13:49;98254.45;;;22.10;72.08
50011;BME280;35899;50.352;19.390;2023-06-24T10:16:15;98256.86;;;22.12;71.79
50011;BME280;35899;50.352;19.390;2023-06-24T10:18:42;98254.77;;;22.13;71.55
50011;BME280;35899;50.352;19.390;2023-06-24T10:21:10;98252.48;;;22.22;71.01
50011;BME280;35899;50.352;19.390;2023-06-24T10:23:40;98254.81;;;22.29;70.94
50011;BME280;35899;50.352;19.390;2023-06-24T10:26:07;98252.84;;;22.29;70.79
50011;BME280;35899;50.352;19.390;2023-06-24T10:29:29;98251.17;;;22.30;70.83
50011;BME280;35899;50.352;19.390;2023-06-24T10:31:29;98253.05;;;22.32;70.19
50011;BME280;35899;50.352;19.390;2023-06-24T10:36:42;98258.09;;;22.34;70.18
50011;BME280;35899;50.352;19.390;2023-06-24T10:44:48;98259.83;;;22.53;70.58
50011;BME280;35899;50.352;19.390;2023-06-24T10:47:14;98261.33;;;22.44;69.87
50011;BME280;35899;50.352;19.390;2023-06-24T10:49:40;98260.48;;;22.32;70.05
50011;BME280;35899;50.352;19.390;2023-06-24T10:52:07;98267.05;;;22.18;70.06
50011;BME280;35899;50.352;19.390;2023-06-24T10:54:37;98266.76;;;22.08;70.38
50011;BME280;35899;50.352;19.390;2023-06-24T10:57:04;98269.21;;;22.01;70.53
50011;BME280;35899;50.352;19.390;2023-06-24T10:59:43;98271.09;;;22.01;71.12
50011;BME280;35899;50.352;19.390;2023-06-24T11:02:13;98271.96;;;21.88;71.12
50011;BME280;35899;50.352;19.390;2023-06-24T11:04:46;98271.62;;;21.74;71.15
50011;BME280;35899;50.352;19.390;2023-06-24T11:07:13;98274.07;;;21.61;71.20
50011;BME280;35899;50.352;19.390;2023-06-24T11:09:40;98273.41;;;21.52;71.50
50011;BME280;35899;50.352;19.390;2023-06-24T11:12:08;98273.05;;;21.43;71.56
50011;BME280;35899;50.352;19.390;2023-06-24T11:14:35;98275.06;;;21.38;71.81
50011;BME280;35899;50.352;19.390;2023-06-24T11:17:01;98279.52;;;21.34;72.00
50011;BME280;35899;50.352;19.390;2023-06-24T11:19:31;98281.71;;;21.20;72.10
50011;BME280;35899;50.352;19.390;2023-06-24T11:22:01;98281.67;;;21.04;72.54
50011;BME280;35899;50.352;19.390;2023-06-24T11:24:28;98286.98;;;20.99;72.89
50011;BME280;35899;50.352;19.390;2023-06-24T11:26:54;98286.48;;;20.99;72.80
50011;BME280;35899;50.352;19.390;2023-06-24T11:29:21;98284.59;;;20.94;72.69
50011;BME280;35899;50.352;19.390;2023-06-24T11:31:50;98289.58;;;20.93;72.97
50011;BME280;35899;50.352;19.390;2023-06-24T11:34:17;98285.89;;;20.96;73.15
50011;BME280;35899;50.352;19.390;2023-06-24T11:36:43;98286.69;;;21.02;73.15
50011;BME280;35899;50.352;19.390;2023-06-24T11:39:20;98285.17;;;21.04;72.94
50011;BME280;35899;50.352;19.390;2023-06-24T11:41:46;98289.13;;;21.04;72.94
50011;BME280;35899;50.352;19.390;2023-06-24T11:44:12;98291.66;;;21.01;72.65
50011;BME280;35899;50.352;19.390;2023-06-24T11:46:39;98292.26;;;20.93;72.47
50011;BME280;35899;50.352;19.390;2023-06-24T11:49:06;98290.61;;;20.87;72.59
50011;BME280;35899;50.352;19.390;2023-06-24T11:51:33;98289.25;;;20.88;72.83
50011;BME280;35899;50.352;19.390;2023-06-24T11:54:00;98291.46;;;20.97;72.99
50011;BME280;35899;50.352;19.390;2023-06-24T11:56:37;98288.30;;;20.98;72.51
50011;BME280;35899;50.352;19.390;2023-06-24T11:59:04;98289.82;;;20.89;72.65
50011;BME280;35899;50.352;19.390;2023-06-24T12:01:31;98291.72;;;20.80;72.79
50011;BME280;35899;50.352;19.390;2023-06-24T12:03:59;98288.19;;;20.71;72.98
50011;BME280;35899;50.352;19.390;2023-06-24T12:06:26;98290.20;;;20.59;73.16
50011;BME280;35899;50.352;19.390;2023-06-24T12:08:52;98288.36;;;20.51;73.51
50011;BME280;35899;50.352;19.390;2023-06-24T12:11:19;98287.15;;;20.41;73.91
50011;BME280;35899;50.352;19.390;2023-06-24T12:13:46;98287.15;;;20.41;74.69
50011;BME280;35899;50.352;19.390;2023-06-24T12:16:12;98287.23;;;20.47;74.89
50011;BME280;35899;50.352;19.390;2023-06-24T12:18:38;98288.39;;;20.48;75.09
50011;BME280;35899;50.352;19.390;2023-06-24T12:21:05;98287.39;;;20.47;75.37
50011;BME280;35899;50.352;19.390;2023-06-24T12:23:31;98285.39;;;20.49;75.58
50011;BME280;35899;50.352;19.390;2023-06-24T12:25:57;98286.95;;;20.51;75.57
50011;BME280;35899;50.352;19.390;2023-06-24T12:28:24;98287.70;;;20.54;75.45
50011;BME280;35899;50.352;19.390;2023-06-24T12:30:50;98283.34;;;20.66;75.62
50011;BME280;35899;50.352;19.390;2023-06-24T12:33:17;98284.89;;;20.76;75.38
50011;BME280;35899;50.352;19.390;2023-06-24T12:35:43;98286.65;;;20.83;75.36
50011;BME280;35899;50.352;19.390;2023-06-24T12:38:09;98288.70;;;20.80;75.13
50011;BME280;35899;50.352;19.390;2023-06-24T12:40:36;98288.95;;;20.78;75.13
50011;BME280;35899;50.352;19.390;2023-06-24T12:43:04;98289.75;;;20.80;75.21
50011;BME280;35899;50.352;19.390;2023-06-24T12:45:31;98289.08;;;20.81;74.88
50011;BME280;35899;50.352;19.390;2023-06-24T12:47:57;98296.01;;;20.74;74.56
50011;BME280;35899;50.352;19.390;2023-06-24T12:50:24;98297.91;;;20.67;74.70
50011;BME280;35899;50.352;19.390;2023-06-24T12:52:50;98297.28;;;20.67;74.76
50011;BME280;35899;50.352;19.390;2023-06-24T12:55:16;98299.27;;;20.68;74.72
50011;BME280;35899;50.352;19.390;2023-06-24T12:57:43;98302.98;;;20.65;74.59
50011;BME280;35899;50.352;19.390;2023-06-24T13:00:11;98304.13;;;20.62;74.75
50011;BME280;35899;50.352;19.390;2023-06-24T13:02:38;98303.35;;;20.66;74.71
50011;BME280;35899;50.352;19.390;2023-06-24T13:05:04;98306.09;;;20.72;74.74
50011;BME280;35899;50.352;19.390;2023-06-24T13:07:31;98306.10;;;20.77;74.21
50011;BME280;35899;50.352;19.390;2023-06-24T13:09:58;98302.27;;;20.78;73.97
50011;BME280;35899;50.352;19.390;2023-06-24T13:12:24;98306.03;;;20.74;73.27
50011;BME280;35899;50.352;19.390;2023-06-24T13:14:50;98304.18;;;20.70;73.08